Terminal Aerodrome Forecast
Issued by NWS Sioux Falls, SD

Home | Current Version | Previous Version | Graphics & Text | Print | Product List | Glossary On
Versions: 1 2 3 4 5 6 7 8 9 10 11 12 13
000
FTUS43 KFSD 271728
TAFFSD
TAF
KFSD 271728Z 2718/2818 17017G25KT P6SM SCT250
     FM272300 16018G27KT P6SM SCT060 BKN140
     FM280400 16018G25KT P6SM SHRA VCTS BKN040CB
     FM280700 17015KT P6SM OVC035
     FM281100 20012KT P6SM BKN050
     FM281400 25012KT P6SM BKN070
     FM281600 27012KT P6SM SCT110=

USA.gov is the U.S. government's official web portal to all federal, state and local government web resources and services.